Time;durP1;ratioP1;P1;durP2;ratioP2;P2;SDS_P1;SDS_P2;PMS_P1;PMS_P2;Temp;Humidity;BMP_temperature;BMP_pressure;BME280_temperature;BME280_humidity;BME280_pressure;Samples;Min_cycle;Max_cycle;Signal;HPM_P1;HPM_P2
2022/01/24 00:01:59;;;;;;;;;40.67;36.00;;;;;6.19;70.37;103128.97;5139622;27;45573;-67
2022/01/24 00:04:25;;;;;;;;;43.67;35.00;;;;;6.26;70.74;103144.03;5139270;27;45572;-67
2022/01/24 00:06:51;;;;;;;;;37.33;31.33;;;;;6.31;70.29;103144.19;5139804;27;45481;-67
2022/01/24 00:09:17;;;;;;;;;43.33;26.67;;;;;6.30;69.73;103137.19;5139389;27;45327;-67
2022/01/24 00:11:59;;;;;;;;;38.67;31.00;;;;;6.32;70.43;103142.47;5139679;27;45367;-67
2022/01/24 00:17:11;;;;;;;;;42.33;29.33;;;;;6.27;69.34;103129.22;5139411;27;45445;-67
2022/01/24 00:27:51;;;;;;;;;32.33;24.33;;;;;6.37;69.36;103130.44;5139262;27;45444;-67
2022/01/24 00:30:18;;;;;;;;;39.33;27.00;;;;;6.38;69.72;103130.47;5139262;27;45599;-67
2022/01/24 00:32:44;;;;;;;;;35.33;27.33;;;;;6.35;69.77;103117.31;5139309;27;45427;-67
2022/01/24 00:35:11;;;;;;;;;35.00;31.00;;;;;6.40;69.75;103120.94;5139016;27;45546;-67
2022/01/24 00:37:37;;;;;;;;;34.00;27.00;;;;;6.40;69.63;103120.94;5139036;27;45409;-67
2022/01/24 00:40:03;;;;;;;;;37.00;30.67;;;;;6.31;70.05;103114.53;5120034;27;45363;-67
2022/01/24 00:42:51;;;;;;;;;39.67;28.33;;;;;6.39;69.88;103120.91;5139091;27;45501;-67
2022/01/24 00:55:48;;;;;;;;;39.67;32.33;;;;;6.27;69.99;103092.59;5138720;27;45454;-67
2022/01/24 00:58:14;;;;;;;;;25.67;23.33;;;;;6.36;69.67;103106.00;5138715;27;45524;-67
2022/01/24 01:00:39;;;;;;;;;36.00;29.67;;;;;6.30;69.84;103097.06;5138826;27;45293;-67
2022/01/24 01:03:05;;;;;;;;;34.67;27.67;;;;;6.28;69.76;103097.00;5138926;27;45415;-67
2022/01/24 01:19:00;;;;;;;;;33.00;30.33;;;;;6.23;68.64;103120.41;5054244;28;45354;-67
2022/01/24 01:21:25;;;;;;;;;31.67;26.33;;;;;6.16;69.39;103104.44;5054422;28;45325;-67
2022/01/24 01:23:56;;;;;;;;;42.33;29.67;;;;;6.21;68.76;103106.38;5054563;28;45476;-67
2022/01/24 01:26:29;;;;;;;;;31.00;21.33;;;;;6.19;69.22;103102.81;5054050;28;46630;-67
2022/01/24 01:29:10;;;;;;;;;33.67;25.33;;;;;6.20;68.88;103115.06;5054368;28;45400;-67
2022/01/24 01:31:49;;;;;;;;;34.00;26.33;;;;;6.27;69.10;103122.28;5037424;28;45386;-67
2022/01/24 01:55:43;;;;;;;;;37.00;30.33;;;;;6.23;69.55;103116.88;5141708;27;45451;-67
2022/01/24 01:58:11;;;;;;;;;31.33;25.00;;;;;6.36;69.24;103131.25;5141617;27;45629;-67
2022/01/24 02:00:40;;;;;;;;;37.67;32.00;;;;;6.32;69.30;103127.66;5141542;27;45304;-67
2022/01/24 02:03:05;;;;;;;;;42.33;26.67;;;;;6.29;69.57;103124.97;5140961;27;45373;-67
2022/01/24 02:05:31;;;;;;;;;36.00;29.33;;;;;6.30;69.07;103124.09;5141711;27;45166;-67
2022/01/24 02:07:56;;;;;;;;;27.67;23.67;;;;;6.28;69.49;103121.44;5141495;27;46382;-67
2022/01/24 02:10:24;;;;;;;;;28.67;25.00;;;;;6.32;69.69;103124.16;5141269;27;45207;-67
2022/01/24 02:12:52;;;;;;;;;44.00;34.33;;;;;6.33;69.86;103125.94;5141503;27;45353;-67
2022/01/24 02:18:10;;;;;;;;;34.00;28.00;;;;;6.32;69.69;103126.75;5141086;27;46203;-67
2022/01/24 02:26:10;;;;;;;;;41.33;30.67;;;;;6.36;69.73;103115.56;5077127;28;45472;-67
2022/01/24 02:33:55;;;;;;;;;40.67;32.67;;;;;6.26;69.18;103096.97;5076597;28;45444;-67
2022/01/24 02:36:22;;;;;;;;;39.00;29.67;;;;;6.25;69.49;103099.53;5077336;28;45309;-67
2022/01/24 02:49:34;;;;;;;;;34.33;30.00;;;;;6.15;69.25;103084.38;5076570;27;45290;-67
2022/01/24 02:52:03;;;;;;;;;41.67;28.00;;;;;6.20;69.49;103098.47;5076691;28;45338;-67
2022/01/24 02:54:32;;;;;;;;;31.00;23.33;;;;;6.15;69.37;103092.22;5076758;28;45401;-67
2022/01/24 02:56:57;;;;;;;;;50.33;31.33;;;;;6.11;69.29;103083.34;5111941;27;45375;-67
2022/01/24 02:59:24;;;;;;;;;36.33;32.33;;;;;6.20;69.23;103085.38;5140628;27;46313;-67
2022/01/24 03:01:50;;;;;;;;;43.00;29.67;;;;;6.10;69.60;103074.63;5140574;27;45495;-67
2022/01/24 03:04:15;;;;;;;;;43.67;33.00;;;;;6.11;69.76;103072.88;5140515;27;45276;-67
2022/01/24 03:06:42;;;;;;;;;33.33;27.67;;;;;6.12;69.39;103082.53;5140951;27;45354;-67
2022/01/24 03:09:08;;;;;;;;;31.33;24.67;;;;;6.05;69.67;103072.69;5140241;27;45649;-67
2022/01/24 03:11:57;;;;;;;;;43.67;32.33;;;;;6.08;70.15;103076.31;5140432;27;45367;-67
2022/01/24 03:14:25;;;;;;;;;37.67;29.67;;;;;6.05;69.67;103077.94;5140669;27;45353;-67
2022/01/24 03:16:52;;;;;;;;;25.33;22.00;;;;;6.00;70.14;103066.41;5140592;27;45304;-67
2022/01/24 03:19:17;;;;;;;;;42.33;33.00;;;;;5.90;70.28;103073.91;5140074;27;46404;-67
2022/01/24 03:21:43;;;;;;;;;37.67;31.33;;;;;5.78;70.52;103064.75;5140291;27;45359;-67
2022/01/24 03:24:14;;;;;;;;;36.67;30.00;;;;;5.65;71.00;103059.13;5140260;27;45323;-67
2022/01/24 03:26:40;;;;;;;;;46.00;32.33;;;;;5.50;71.14;103048.13;5140658;27;45267;-67
2022/01/24 03:29:06;;;;;;;;;46.67;32.33;;;;;5.49;71.60;103062.91;5139945;27;46703;-67
2022/01/24 03:31:33;;;;;;;;;50.00;32.67;;;;;5.37;72.00;103042.47;5140201;27;45241;-67
2022/01/24 03:33:59;;;;;;;;;41.33;31.00;;;;;5.34;72.30;103037.09;5140258;27;45420;-67
2022/01/24 03:36:25;;;;;;;;;47.00;32.67;;;;;5.36;72.61;103042.41;5140389;27;45462;-67
2022/01/24 03:38:50;;;;;;;;;43.00;30.67;;;;;5.33;72.68;103040.56;5139987;27;45348;-67
2022/01/24 03:41:16;;;;;;;;;33.00;30.00;;;;;5.22;72.62;103031.44;5139837;27;45467;-67
2022/01/24 03:43:41;;;;;;;;;32.67;30.67;;;;;5.25;72.57;103041.13;5140268;27;45468;-67
2022/01/24 03:48:49;;;;;;;;;48.00;31.33;;;;;5.06;72.96;103030.00;5139884;27;45262;-67
2022/01/24 03:51:15;;;;;;;;;41.00;32.67;;;;;5.15;73.55;103051.22;5139688;27;45338;-67
2022/01/24 03:53:43;;;;;;;;;27.00;17.33;;;;;5.03;73.17;103041.22;5140058;27;45323;-67
2022/01/24 03:56:10;;;;;;;;;35.67;30.33;;;;;5.04;73.01;103053.44;5135278;27;45213;-67
2022/01/24 03:58:37;;;;;;;;;34.00;27.67;;;;;4.97;74.05;103054.03;5095782;27;46377;-67
2022/01/24 04:01:06;;;;;;;;;33.00;29.33;;;;;4.95;73.73;103049.59;5098259;27;45316;-67
2022/01/24 04:03:32;;;;;;;;;41.33;35.33;;;;;4.93;73.66;103056.50;5118620;27;45435;-67
2022/01/24 04:05:57;;;;;;;;;38.67;31.00;;;;;4.80;73.53;103042.94;5119302;27;45406;-67
2022/01/24 04:08:23;;;;;;;;;44.00;33.00;;;;;4.84;73.42;103057.91;5118487;27;45363;-67
2022/01/24 04:10:52;;;;;;;;;44.33;34.00;;;;;4.68;73.46;103045.09;5118726;27;45698;-67
2022/01/24 04:13:32;;;;;;;;;40.67;32.67;;;;;4.64;74.38;103043.19;5118876;27;45300;-67
2022/01/24 04:23:51;;;;;;;;;46.67;31.67;;;;;4.52;74.10;103039.28;5097953;27;45185;-67
2022/01/24 04:26:16;;;;;;;;;39.00;28.00;;;;;4.47;74.54;103045.13;5116422;27;45417;-67
2022/01/24 04:28:42;;;;;;;;;36.33;32.00;;;;;4.46;75.03;103046.88;5118526;27;45930;-67
2022/01/24 04:31:08;;;;;;;;;39.33;30.67;;;;;4.41;75.05;103042.28;5100061;27;45364;-67
2022/01/24 04:33:34;;;;;;;;;38.67;31.67;;;;;4.40;75.43;103045.72;5118653;27;45447;-67
2022/01/24 04:35:59;;;;;;;;;45.00;32.33;;;;;4.43;76.35;103049.34;5118744;27;45301;-67
2022/01/24 04:38:25;;;;;;;;;43.67;35.00;;;;;4.45;75.52;103055.50;5118292;27;46372;-68
2022/01/24 04:40:56;;;;;;;;;47.33;39.67;;;;;4.39;75.27;103049.19;5118221;27;45494;-67
2022/01/24 04:46:13;;;;;;;;;42.00;34.33;;;;;4.24;75.97;103042.50;5118576;27;45315;-67
2022/01/24 04:51:52;;;;;;;;;42.33;26.67;;;;;3.77;75.59;102977.16;5118255;27;45245;-67
2022/01/24 04:54:51;;;;;;;;;37.33;29.33;;;;;4.14;75.88;103050.78;5118453;27;45374;-67
2022/01/24 04:57:15;;;;;;;;;32.67;27.00;;;;;4.16;76.47;103055.22;5115362;27;45189;-67
2022/01/24 04:59:43;;;;;;;;;41.33;28.67;;;;;4.16;76.51;103042.19;5117857;27;46441;-67
2022/01/24 05:02:08;;;;;;;;;31.00;24.33;;;;;4.06;76.19;103036.53;5117964;27;45325;-67
2022/01/24 05:04:34;;;;;;;;;39.67;26.67;;;;;4.04;76.07;103028.66;5118114;27;45450;-67
2022/01/24 05:07:00;;;;;;;;;32.00;23.33;;;;;4.03;76.38;103042.50;5118466;27;45369;-67
2022/01/24 05:09:30;;;;;;;;;37.33;29.67;;;;;4.06;76.30;103050.44;5120127;27;46376;-67
2022/01/24 05:12:02;;;;;;;;;39.33;26.33;;;;;4.00;76.59;103045.00;5121460;27;45439;-67
2022/01/24 05:25:23;;;;;;;;;34.33;29.00;;;;;3.86;77.25;103051.34;5121553;27;45472;-67
2022/01/24 05:27:48;;;;;;;;;35.67;31.33;;;;;3.91;77.03;103058.53;5121670;27;45250;-67
2022/01/24 05:30:15;;;;;;;;;44.67;31.33;;;;;3.87;76.88;103056.63;5121406;27;45642;-67
2022/01/24 05:32:40;;;;;;;;;48.33;32.33;;;;;3.90;77.30;103064.56;5121436;27;45244;-67
2022/01/24 05:35:06;;;;;;;;;36.33;30.33;;;;;3.80;77.63;103042.41;5121325;27;45301;-67
2022/01/24 05:37:32;;;;;;;;;39.00;32.33;;;;;3.79;77.61;103058.91;5121686;27;45217;-67
2022/01/24 05:39:57;;;;;;;;;34.00;28.00;;;;;3.74;77.32;103054.31;5121008;27;45428;-67
2022/01/24 05:42:23;;;;;;;;;35.00;25.67;;;;;3.48;77.27;103013.28;5121039;27;45290;-67
2022/01/24 05:44:49;;;;;;;;;55.00;41.00;;;;;3.75;78.40;103059.59;5121390;27;45317;-67
2022/01/24 05:47:15;;;;;;;;;40.00;30.00;;;;;3.54;77.39;103007.44;5121299;27;45343;-67
2022/01/24 05:49:40;;;;;;;;;35.33;30.67;;;;;3.68;77.67;103028.88;5121011;27;46081;-67
2022/01/24 05:52:09;;;;;;;;;44.33;35.33;;;;;3.72;77.48;103053.34;5120902;27;45372;-67
2022/01/24 05:54:36;;;;;;;;;38.33;32.67;;;;;3.64;77.35;103056.50;5112788;27;45449;-67
2022/01/24 05:57:02;;;;;;;;;43.00;30.33;;;;;3.46;77.94;103033.16;5121105;27;45163;-67
2022/01/24 05:59:27;;;;;;;;;38.00;25.67;;;;;3.56;77.84;103064.81;5120766;27;47166;-67
2022/01/24 06:01:53;;;;;;;;;37.33;29.00;;;;;3.43;78.74;103046.06;5120693;27;45262;-67
2022/01/24 06:04:18;;;;;;;;;52.67;34.33;;;;;3.23;78.65;103005.25;5120661;27;45315;-66
2022/01/24 06:06:43;;;;;;;;;37.67;26.33;;;;;3.48;78.76;103046.25;5121218;27;45225;-65
2022/01/24 06:09:08;;;;;;;;;42.67;35.33;;;;;3.52;78.50;103048.19;5120661;27;45361;-65
2022/01/24 06:11:34;;;;;;;;;53.00;33.67;;;;;3.48;78.05;103062.75;5120585;27;45316;-65
2022/01/24 06:14:02;;;;;;;;;29.00;24.67;;;;;3.40;78.03;103047.63;5120952;27;45343;-65
2022/01/24 06:16:27;;;;;;;;;47.33;34.00;;;;;3.36;79.35;103045.72;5121116;27;45303;-65
2022/01/24 06:18:53;;;;;;;;;32.33;25.33;;;;;3.26;78.62;103034.88;5120294;27;46463;-65
2022/01/24 06:21:18;;;;;;;;;48.00;33.33;;;;;3.41;79.64;103060.75;5120207;27;45473;-65
2022/01/24 06:23:43;;;;;;;;;34.33;28.33;;;;;3.37;79.15;103057.91;5120896;27;45653;-65
2022/01/24 06:26:10;;;;;;;;;28.33;25.67;;;;;3.41;79.02;103065.94;5120538;27;45379;-65
2022/01/24 06:28:41;;;;;;;;;38.67;30.00;;;;;3.39;79.18;103064.97;5120543;27;46220;-66
2022/01/24 06:31:07;;;;;;;;;39.00;34.00;;;;;3.36;78.72;103058.75;5120043;27;45423;-65
2022/01/24 06:33:33;;;;;;;;;82.25;60.50;;;;;3.30;79.42;103057.63;5120494;27;45316;-65
2022/01/24 06:35:58;;;;;;;;;45.33;37.00;;;;;3.29;79.14;103060.19;5120613;27;45391;-65
2022/01/24 06:38:24;;;;;;;;;55.67;38.00;;;;;3.26;78.23;103055.72;5120029;27;46243;-65
2022/01/24 06:40:49;;;;;;;;;47.67;38.00;;;;;3.29;79.09;103062.78;5120129;27;45335;-65
2022/01/24 06:43:15;;;;;;;;;59.33;49.33;;;;;3.33;79.01;103072.53;5120159;27;45245;-65
2022/01/24 06:45:40;;;;;;;;;41.33;34.33;;;;;3.25;80.12;103060.84;5101860;27;45531;-65
2022/01/24 06:48:06;;;;;;;;;56.33;37.33;;;;;3.31;80.32;103075.06;5120244;27;45456;-65
2022/01/24 06:50:31;;;;;;;;;43.33;35.33;;;;;3.35;80.26;103076.06;5119976;27;45222;-65
2022/01/24 06:52:57;;;;;;;;;44.33;32.67;;;;;3.27;79.84;103072.25;5120427;27;45262;-65
2022/01/24 06:55:22;;;;;;;;;28.67;25.33;;;;;3.18;80.50;103064.00;5120257;27;45419;-66
2022/01/24 06:57:48;;;;;;;;;26.00;15.33;;;;;3.27;80.93;103073.13;5119873;27;46617;-65
2022/01/24 07:00:13;;;;;;;;;50.00;39.00;;;;;3.23;79.54;103071.22;5119909;27;45277;-66
2022/01/24 07:02:39;;;;;;;;;68.00;45.67;;;;;3.29;80.40;103083.63;5119728;27;45421;-66
2022/01/24 07:05:05;;;;;;;;;45.67;35.67;;;;;3.27;80.61;103078.34;5120214;27;45266;-66
2022/01/24 07:07:33;;;;;;;;;52.00;38.33;;;;;3.28;80.26;103082.72;5119504;27;47042;-66
2022/01/24 07:09:58;;;;;;;;;49.00;39.67;;;;;3.27;80.33;103093.97;5119686;27;45734;-66
2022/01/24 07:12:24;;;;;;;;;42.67;36.00;;;;;3.19;80.28;103077.09;5119696;27;45485;-66
2022/01/24 07:14:50;;;;;;;;;46.67;40.67;;;;;3.21;79.32;103074.56;5119887;27;45217;-66
2022/01/24 07:17:34;;;;;;;;;44.33;32.33;;;;;3.23;79.24;103098.97;5119872;27;46009;-66
2022/01/24 07:19:59;;;;;;;;;49.00;40.00;;;;;3.23;79.99;103099.84;5119725;27;45270;-66
2022/01/24 07:22:24;;;;;;;;;54.00;35.67;;;;;3.22;79.43;103103.25;5119836;27;45300;-67
2022/01/24 07:24:50;;;;;;;;;47.00;30.33;;;;;3.16;79.53;103100.38;5119995;27;45263;-67
2022/01/24 07:27:16;;;;;;;;;38.67;29.00;;;;;2.85;80.28;103046.94;5119417;27;45470;-67
2022/01/24 07:29:41;;;;;;;;;43.00;34.67;;;;;3.08;80.64;103086.13;5119618;27;45306;-67
2022/01/24 07:32:07;;;;;;;;;48.67;40.33;;;;;3.08;80.01;103078.31;5119032;27;45677;-67
2022/01/24 07:34:32;;;;;;;;;46.00;37.67;;;;;3.08;80.68;103083.50;5119917;27;45388;-67
2022/01/24 07:36:58;;;;;;;;;40.00;34.00;;;;;3.13;79.56;103095.91;5119582;27;46351;-66
2022/01/24 07:39:23;;;;;;;;;46.33;37.33;;;;;3.11;80.06;103094.09;5119141;27;45256;-66
2022/01/24 07:41:50;;;;;;;;;47.00;37.67;;;;;3.01;80.94;103073.66;5119214;27;45899;-67
2022/01/24 07:44:18;;;;;;;;;45.00;33.67;;;;;3.17;81.04;103101.28;5119643;27;45542;-67
2022/01/24 07:46:43;;;;;;;;;29.67;29.00;;;;;3.14;79.92;103096.84;5119141;27;46502;-67
2022/01/24 07:49:11;;;;;;;;;41.00;33.00;;;;;3.13;79.97;103105.44;5119321;27;45324;-67
2022/01/24 07:51:37;;;;;;;;;53.33;37.00;;;;;3.06;80.12;103095.56;5118864;27;45628;-66
2022/01/24 07:54:03;;;;;;;;;51.00;37.67;;;;;3.11;80.58;103099.28;5119138;27;45241;-66
2022/01/24 07:56:29;;;;;;;;;41.00;27.00;;;;;3.11;80.43;103094.09;5118848;27;45427;-67
2022/01/24 07:58:54;;;;;;;;;45.67;39.00;;;;;3.09;81.00;103090.50;5119134;27;45341;-67
2022/01/24 08:01:20;;;;;;;;;45.67;33.67;;;;;3.13;81.17;103097.63;5119136;27;45680;-66
2022/01/24 08:03:46;;;;;;;;;51.00;39.67;;;;;2.94;81.20;103073.34;5105929;27;45682;-67
2022/01/24 08:06:12;;;;;;;;;79.50;61.50;;;;;3.05;82.06;103089.50;5119101;27;45573;-66
2022/01/24 08:08:37;;;;;;;;;44.67;36.33;;;;;3.14;81.74;103102.91;5138935;27;45389;-65
2022/01/24 08:11:02;;;;;;;;;70.67;55.67;;;;;3.24;81.30;103101.63;5130639;27;45896;-66
2022/01/24 08:13:28;;;;;;;;;60.67;50.00;;;;;3.05;81.07;103062.56;5118640;27;45301;-67
2022/01/24 08:15:53;;;;;;;;;46.33;34.00;;;;;3.36;81.77;103116.91;5118494;27;45411;-68
2022/01/24 08:18:19;;;;;;;;;48.00;40.33;;;;;3.34;81.09;103102.03;5118601;27;45530;-68
2022/01/24 08:20:44;;;;;;;;;51.00;40.33;;;;;3.56;80.92;103112.63;5118840;27;45234;-66
2022/01/24 08:23:11;;;;;;;;;47.00;41.00;;;;;3.72;80.69;103106.38;5118703;27;45520;-66
2022/01/24 08:25:37;;;;;;;;;46.00;36.67;;;;;4.02;79.67;103105.88;5118404;27;46550;-66
2022/01/24 08:28:02;;;;;;;;;43.00;37.33;;;;;4.74;77.07;103101.88;5118383;27;45334;-66
2022/01/24 08:30:28;;;;;;;;;53.67;37.67;;;;;5.08;74.08;103106.66;5118292;27;45316;-66
2022/01/24 08:32:54;;;;;;;;;54.33;38.00;;;;;5.04;74.14;103108.28;5119311;27;45310;-67
2022/01/24 08:35:21;;;;;;;;;59.00;44.00;;;;;4.96;74.35;103093.16;5118538;27;46441;-73
2022/01/24 08:37:46;;;;;;;;;55.00;39.67;;;;;5.03;73.88;103111.72;5118332;27;45475;-70
2022/01/24 08:40:24;;;;;;;;;48.33;36.33;;;;;4.82;74.23;103087.38;5118211;27;45429;-69
2022/01/24 08:42:59;;;;;;;;;43.33;34.00;;;;;4.76;74.96;103108.91;5118303;27;45280;-66
2022/01/24 08:48:11;;;;;;;;;56.33;43.67;;;;;4.48;76.01;103089.53;5118073;27;45387;-67
2022/01/24 08:50:37;;;;;;;;;58.33;44.00;;;;;4.48;76.41;103091.28;5114670;27;45392;-67
2022/01/24 08:53:03;;;;;;;;;59.67;43.00;;;;;4.50;76.63;103094.81;5114069;27;45343;-67
2022/01/24 08:55:33;;;;;;;;;59.00;44.00;;;;;4.59;76.26;103112.56;5118082;27;45627;-64
2022/01/24 08:58:00;;;;;;;;;58.00;42.67;;;;;4.59;76.78;103109.94;5118032;27;45313;-65
2022/01/24 09:00:26;;;;;;;;;49.33;38.33;;;;;4.60;76.34;103104.78;5117642;27;45427;-65
2022/01/24 09:15:14;;;;;;;;;49.00;38.00;;;;;4.91;75.04;103108.63;5131620;27;45260;-67
2022/01/24 09:17:40;;;;;;;;;49.33;35.33;;;;;5.19;74.11;103091.41;5114868;27;45330;-67
2022/01/24 09:20:06;;;;;;;;;50.00;38.33;;;;;5.44;72.64;103092.31;5114585;27;45585;-66
2022/01/24 09:22:34;;;;;;;;;47.33;37.00;;;;;5.61;72.46;103112.09;5115053;27;45282;-67
2022/01/24 09:24:59;;;;;;;;;48.33;35.67;;;;;5.62;73.12;103111.28;5114892;27;46455;-69
2022/01/24 09:27:25;;;;;;;;;58.00;38.00;;;;;5.63;72.31;103122.63;5114719;27;45362;-64
2022/01/24 09:29:50;;;;;;;;;46.00;36.67;;;;;6.12;71.30;103107.81;5114759;27;45415;-67
2022/01/24 09:32:15;;;;;;;;;50.00;36.00;;;;;6.25;69.50;103113.47;5114943;27;45310;-68
2022/01/24 09:34:41;;;;;;;;;50.67;36.00;;;;;6.23;69.37;103101.19;5112462;27;47314;-68
2022/01/24 09:37:06;;;;;;;;;46.33;36.33;;;;;6.27;68.82;103103.97;5114938;27;45397;-65
2022/01/24 09:39:32;;;;;;;;;47.33;35.00;;;;;6.07;69.71;103097.16;5114498;27;45331;-65
2022/01/24 09:41:57;;;;;;;;;39.67;36.67;;;;;6.02;70.55;103102.25;5115019;27;45431;-66
2022/01/24 09:44:22;;;;;;;;;48.00;33.67;;;;;5.93;70.29;103104.53;5114066;27;45462;-66
2022/01/24 09:46:48;;;;;;;;;53.67;38.00;;;;;6.32;70.84;103097.97;5114624;27;45402;-66
2022/01/24 09:49:14;;;;;;;;;51.33;36.00;;;;;6.77;68.11;103102.94;5114421;27;45434;-67
2022/01/24 09:51:40;;;;;;;;;52.00;35.00;;;;;6.94;66.39;103106.97;5113241;27;45547;-66
2022/01/24 09:54:07;;;;;;;;;42.00;32.00;;;;;7.08;65.86;103111.72;5114696;27;45322;-66
2022/01/24 09:56:34;;;;;;;;;40.33;33.33;;;;;7.28;65.76;103107.06;5114120;27;45174;-68
2022/01/24 09:58:59;;;;;;;;;42.67;32.33;;;;;7.36;64.44;103105.53;5114413;27;45456;-71
2022/01/24 10:01:25;;;;;;;;;43.67;34.33;;;;;7.63;65.77;103097.56;5114442;27;45398;-65
2022/01/24 10:04:15;;;;;;;;;45.00;34.33;;;;;8.90;65.01;103100.72;5113800;27;47455;-66
2022/01/24 10:07:02;;;;;;;;;44.00;35.33;;;;;10.20;58.97;103096.25;5113751;27;45319;-67
2022/01/24 10:09:51;;;;;;;;;41.00;36.67;;;;;10.73;55.84;103100.63;5113862;27;45337;-67
2022/01/24 10:17:38;;;;;;;;;43.33;33.33;;;;;9.84;56.24;103091.22;5100109;27;45314;-70
2022/01/24 10:20:28;;;;;;;;;42.33;36.00;;;;;9.43;58.05;103104.50;5100383;27;45280;-67
2022/01/24 10:23:15;;;;;;;;;48.00;36.00;;;;;8.87;57.59;103108.53;5100434;27;45357;-68
2022/01/24 10:25:49;;;;;;;;;49.33;36.00;;;;;8.45;59.07;103109.31;5099616;27;45483;-66
2022/01/24 10:28:28;;;;;;;;;35.67;33.00;;;;;8.14;60.63;103127.78;5099898;27;45410;-69
2022/01/24 10:31:07;;;;;;;;;53.00;37.33;;;;;7.89;61.07;103123.63;5099986;27;45359;-67
2022/01/24 10:34:35;;;;;;;;;51.00;39.00;;;;;7.70;61.20;103129.19;5099992;27;45453;-66
2022/01/24 10:36:57;;;;;;;;;46.33;38.00;;;;;7.41;61.54;103116.19;5099604;27;45393;-67
2022/01/24 10:39:54;;;;;;;;;47.33;34.33;;;;;7.43;62.43;103128.47;5099873;27;45538;-66
2022/01/24 10:42:52;;;;;;;;;57.33;43.00;;;;;7.62;62.61;103115.88;5099947;27;45459;-67
2022/01/24 10:45:20;;;;;;;;;49.33;37.00;;;;;7.76;61.98;103116.28;5099112;27;45383;-67
2022/01/24 10:47:50;;;;;;;;;54.00;36.33;;;;;7.88;61.76;103113.09;5099492;27;45488;-66
2022/01/24 10:50:33;;;;;;;;;51.67;35.00;;;;;7.84;61.18;103099.00;5079080;27;45480;-70
2022/01/24 10:53:10;;;;;;;;;40.33;32.67;;;;;7.87;61.67;103108.69;5079550;28;45317;-66
2022/01/24 10:55:36;;;;;;;;;44.67;35.33;;;;;7.91;61.66;103103.56;5079576;27;45349;-66
2022/01/24 10:58:04;;;;;;;;;46.33;34.67;;;;;7.95;61.55;103105.41;5079203;27;46024;-66
2022/01/24 11:00:30;;;;;;;;;46.33;33.33;;;;;7.94;61.73;103098.38;5079446;28;45454;-66
2022/01/24 11:02:59;;;;;;;;;52.00;36.33;;;;;7.84;61.95;103099.91;5113189;27;45246;-66
2022/01/24 11:05:33;;;;;;;;;37.33;31.67;;;;;7.80;61.98;103095.41;5120525;27;45301;-66
2022/01/24 11:08:02;;;;;;;;;50.33;37.00;;;;;7.73;62.01;103088.22;5108272;27;45694;-66
2022/01/24 11:10:34;;;;;;;;;33.33;25.33;;;;;7.71;62.47;103095.19;5099614;27;45433;-66
2022/01/24 11:13:00;;;;;;;;;38.67;32.00;;;;;7.42;62.03;103073.38;5099598;27;45390;-66
2022/01/24 11:15:26;;;;;;;;;46.67;33.00;;;;;7.43;62.30;103097.00;5099790;27;45416;-66
2022/01/24 11:17:57;;;;;;;;;36.00;32.67;;;;;7.31;62.50;103086.19;5099004;27;46750;-66
2022/01/24 11:20:29;;;;;;;;;42.33;32.00;;;;;7.19;63.80;103080.59;5099258;27;45319;-67
2022/01/24 11:22:59;;;;;;;;;45.00;33.33;;;;;7.18;63.45;103084.94;5099736;27;45321;-66
2022/01/24 11:25:30;;;;;;;;;41.33;32.67;;;;;7.15;63.72;103088.34;5098694;27;45277;-66
2022/01/24 11:27:56;;;;;;;;;49.67;35.00;;;;;7.11;64.13;103081.25;5097108;27;46031;-66
2022/01/24 11:30:28;;;;;;;;;40.67;35.00;;;;;7.09;64.38;103079.47;5099110;27;45566;-67
2022/01/24 11:33:01;;;;;;;;;19.67;18.33;;;;;7.14;64.58;103091.84;5097679;27;45608;-67
2022/01/24 11:35:38;;;;;;;;;50.33;35.33;;;;;7.10;65.04;103091.69;5098793;27;45306;-67
2022/01/24 11:38:24;;;;;;;;;46.33;35.67;;;;;7.11;65.18;103086.50;5085590;27;45529;-66
2022/01/24 11:40:53;;;;;;;;;47.00;36.00;;;;;7.17;64.96;103087.53;5099055;27;45281;-66
2022/01/24 11:43:33;;;;;;;;;36.33;29.67;;;;;7.21;64.31;103086.78;5099167;27;45292;-66
2022/01/24 11:46:05;;;;;;;;;29.67;26.00;;;;;7.06;63.67;103069.78;5099232;27;45379;-66
2022/01/24 11:48:32;;;;;;;;;33.67;29.00;;;;;7.02;64.17;103053.91;5098776;27;47293;-66
2022/01/24 11:51:00;;;;;;;;;47.67;37.00;;;;;7.17;64.79;103074.44;5098802;27;45469;-66
2022/01/24 11:53:29;;;;;;;;;36.33;30.33;;;;;7.09;64.87;103048.03;5099209;27;45294;-66
2022/01/24 11:55:55;;;;;;;;;35.67;30.67;;;;;7.18;64.14;103065.75;5097634;27;45455;-66
2022/01/24 11:58:29;;;;;;;;;39.33;32.33;;;;;7.18;64.72;103058.75;5098737;27;47453;-66
2022/01/24 12:00:57;;;;;;;;;42.33;31.67;;;;;7.28;64.85;103067.78;5099167;27;45465;-66
2022/01/24 12:03:28;;;;;;;;;43.67;34.00;;;;;7.24;64.64;103058.91;5098740;27;45416;-66
2022/01/24 12:05:58;;;;;;;;;38.67;29.33;;;;;7.23;64.77;103045.78;5098664;27;45240;-66
2022/01/24 12:08:32;;;;;;;;;53.00;36.67;;;;;7.27;64.32;103048.53;5098513;27;45936;-66
2022/01/24 12:11:27;;;;;;;;;36.33;32.67;;;;;7.32;64.03;103051.28;5098492;27;45442;-66
2022/01/24 12:14:02;;;;;;;;;35.67;30.67;;;;;7.33;64.41;103037.31;5098426;27;45280;-66
2022/01/24 12:16:42;;;;;;;;;37.33;33.67;;;;;7.43;63.96;103044.59;5098493;27;45307;-66
2022/01/24 12:19:10;;;;;;;;;47.33;37.00;;;;;7.46;64.05;103038.56;5098043;27;46285;-66
2022/01/24 12:21:38;;;;;;;;;44.67;35.00;;;;;7.49;64.05;103039.53;5098303;27;45308;-66
2022/01/24 12:24:13;;;;;;;;;40.00;30.33;;;;;7.51;63.24;103039.59;5098296;27;45367;-66
2022/01/24 12:26:45;;;;;;;;;41.67;31.33;;;;;7.52;63.00;103038.72;5098717;27;45323;-67
2022/01/24 12:29:20;;;;;;;;;39.00;30.67;;;;;7.51;63.36;103026.47;5098255;27;45367;-66
2022/01/24 12:31:54;;;;;;;;;35.67;30.67;;;;;7.62;63.35;103032.91;5097055;27;45540;-66
2022/01/24 12:34:33;;;;;;;;;44.00;32.00;;;;;7.62;62.55;103032.91;5098205;27;45481;-66
2022/01/24 12:37:04;;;;;;;;;35.33;28.33;;;;;7.36;63.16;102989.34;5098400;27;45253;-66
2022/01/24 12:39:34;;;;;;;;;41.00;35.00;;;;;7.54;62.75;103016.06;5097884;27;46235;-66
2022/01/24 12:42:14;;;;;;;;;43.67;34.33;;;;;7.67;63.64;103027.78;5098104;27;45425;-66
2022/01/24 12:47:17;;;;;;;;;41.67;33.67;;;;;7.75;62.77;103022.72;5098182;27;45306;-66
2022/01/24 12:49:44;;;;;;;;;39.00;30.67;;;;;7.78;62.59;103023.66;5097757;27;45739;-66
2022/01/24 12:52:15;;;;;;;;;42.00;29.33;;;;;7.82;62.38;103016.78;5097881;27;45304;-66
2022/01/24 12:54:51;;;;;;;;;46.33;34.00;;;;;7.85;62.97;103015.09;5097883;27;45345;-66
2022/01/24 12:57:19;;;;;;;;;41.00;34.00;;;;;7.84;62.81;102991.47;5098178;27;45299;-66
2022/01/24 13:00:01;;;;;;;;;36.33;31.00;;;;;7.95;62.33;103000.50;5097913;27;46603;-66
2022/01/24 13:02:32;;;;;;;;;36.33;28.33;;;;;7.96;61.88;102999.66;5097812;27;45742;-66
2022/01/24 13:05:16;;;;;;;;;34.67;25.33;;;;;7.87;61.37;102991.56;5097940;27;45339;-66
2022/01/24 13:07:49;;;;;;;;;32.00;26.67;;;;;7.91;62.13;103001.25;5097948;27;45270;-66
2022/01/24 13:10:18;;;;;;;;;40.67;29.33;;;;;7.97;61.58;102998.81;5097750;27;45458;-66
2022/01/24 13:12:53;;;;;;;;;39.67;26.67;;;;;7.97;61.30;103006.69;5097561;27;45236;-66
2022/01/24 13:15:26;;;;;;;;;39.00;31.00;;;;;7.90;61.55;102983.78;5097935;27;45290;-66
2022/01/24 13:23:25;;;;;;;;;29.67;22.67;;;;;7.83;60.73;102960.88;5097581;27;45247;-66
2022/01/24 13:25:51;;;;;;;;;27.00;24.67;;;;;7.89;61.13;102976.75;5097762;27;45324;-66
2022/01/24 13:28:19;;;;;;;;;34.33;27.00;;;;;7.90;60.75;102980.25;5097749;27;45382;-66
2022/01/24 13:30:48;;;;;;;;;35.33;34.00;;;;;7.81;60.96;102971.31;5097489;27;45663;-66
2022/01/24 13:33:19;;;;;;;;;32.33;24.33;;;;;7.99;61.01;102983.97;5097305;27;45232;-66
2022/01/24 13:35:50;;;;;;;;;36.33;26.67;;;;;7.88;60.02;102972.34;5097455;27;45478;-66
2022/01/24 13:38:25;;;;;;;;;43.33;33.00;;;;;7.91;60.97;102975.03;5097736;27;45463;-66
2022/01/24 13:41:05;;;;;;;;;42.00;32.67;;;;;7.99;60.85;102985.72;5097268;27;46409;-66
2022/01/24 13:43:45;;;;;;;;;35.67;32.00;;;;;8.00;61.30;102982.22;5097301;27;45160;-66